sensor_id;sensor_type;location;lat;lon;timestamp;pressure;altitude;pressure_sealevel;temperature;humidity
44131;BME280;29792;48.726;9.248;2022-10-16T00:00:32;96811.47;;;16.45;100.00
44131;BME280;29792;48.726;9.248;2022-10-16T00:02:57;96813.06;;;16.46;100.00
44131;BME280;29792;48.726;9.248;2022-10-16T00:05:23;96818.22;;;16.46;100.00
44131;BME280;29792;48.726;9.248;2022-10-16T00:07:48;96813.84;;;16.47;100.00
44131;BME280;29792;48.726;9.248;2022-10-16T00:10:13;96814.84;;;16.46;100.00
44131;BME280;29792;48.726;9.248;2022-10-16T00:12:38;96808.88;;;16.45;100.00
44131;BME280;29792;48.726;9.248;2022-10-16T00:15:04;96816.63;;;16.45;100.00
44131;BME280;29792;48.726;9.248;2022-10-16T00:17:29;96819.22;;;16.45;100.00
44131;BME280;29792;48.726;9.248;2022-10-16T00:19:54;96818.22;;;16.46;100.00
44131;BME280;29792;48.726;9.248;2022-10-16T00:22:20;96821.81;;;16.45;100.00
44131;BME280;29792;48.726;9.248;2022-10-16T00:24:45;96819.22;;;16.45;100.00
44131;BME280;29792;48.726;9.248;2022-10-16T00:27:10;96821.16;;;16.43;100.00
44131;BME280;29792;48.726;9.248;2022-10-16T00:29:35;96825.66;;;16.41;100.00
44131;BME280;29792;48.726;9.248;2022-10-16T00:32:00;96824.06;;;16.40;100.00
44131;BME280;29792;48.726;9.248;2022-10-16T00:34:25;96829.22;;;16.40;100.00
44131;BME280;29792;48.726;9.248;2022-10-16T00:36:51;96820.81;;;16.38;100.00
44131;BME280;29792;48.726;9.248;2022-10-16T00:39:16;96820.50;;;16.33;100.00
44131;BME280;29792;48.726;9.248;2022-10-16T00:41:41;96825.03;;;16.31;100.00
44131;BME280;29792;48.726;9.248;2022-10-16T00:46:50;96805.50;;;16.20;100.00
44131;BME280;29792;48.726;9.248;2022-10-16T00:49:16;96813.56;;;16.17;100.00
44131;BME280;29792;48.726;9.248;2022-10-16T00:51:45;96816.66;;;16.13;100.00
44131;BME280;29792;48.726;9.248;2022-10-16T00:54:44;96821.50;;;16.08;100.00
44131;BME280;29792;48.726;9.248;2022-10-16T00:57:03;96810.03;;;16.02;100.00
44131;BME280;29792;48.726;9.248;2022-10-16T00:59:33;96806.94;;;15.98;100.00
44131;BME280;29792;48.726;9.248;2022-10-16T01:01:59;96805.50;;;15.96;100.00
44131;BME280;29792;48.726;9.248;2022-10-16T01:04:25;96812.47;;;15.95;100.00
44131;BME280;29792;48.726;9.248;2022-10-16T01:06:52;96820.38;;;15.94;100.00
44131;BME280;29792;48.726;9.248;2022-10-16T01:22:19;96837.63;;;15.85;100.00
44131;BME280;29792;48.726;9.248;2022-10-16T01:24:49;96846.34;;;15.84;100.00
44131;BME280;29792;48.726;9.248;2022-10-16T01:27:22;96845.69;;;15.82;100.00
44131;BME280;29792;48.726;9.248;2022-10-16T01:29:56;96844.06;;;15.81;100.00
44131;BME280;29792;48.726;9.248;2022-10-16T01:32:28;96828.41;;;15.83;100.00
44131;BME280;29792;48.726;9.248;2022-10-16T01:40:02;96846.03;;;15.87;100.00
44131;BME280;29792;48.726;9.248;2022-10-16T01:42:31;96838.13;;;15.89;100.00
44131;BME280;29792;48.726;9.248;2022-10-16T01:44:59;96830.38;;;15.89;100.00
44131;BME280;29792;48.726;9.248;2022-10-16T01:47:25;96818.44;;;15.88;100.00
44131;BME280;29792;48.726;9.248;2022-10-16T01:49:51;96815.19;;;15.86;100.00
44131;BME280;29792;48.726;9.248;2022-10-16T01:52:19;96813.56;;;15.85;100.00
44131;BME280;29792;48.726;9.248;2022-10-16T01:54:46;96816.31;;;15.83;100.00
44131;BME280;29792;48.726;9.248;2022-10-16T01:57:12;96817.28;;;15.82;100.00
44131;BME280;29792;48.726;9.248;2022-10-16T01:59:41;96814.69;;;15.82;100.00
44131;BME280;29792;48.726;9.248;2022-10-16T02:02:09;96814.53;;;15.84;100.00
44131;BME280;29792;48.726;9.248;2022-10-16T02:04:38;96813.72;;;15.83;100.00
44131;BME280;29792;48.726;9.248;2022-10-16T02:07:04;96813.72;;;15.83;100.00
44131;BME280;29792;48.726;9.248;2022-10-16T02:09:30;96812.75;;;15.84;100.00
44131;BME280;29792;48.726;9.248;2022-10-16T02:11:57;96814.38;;;15.85;100.00
44131;BME280;29792;48.726;9.248;2022-10-16T02:14:24;96816.16;;;15.85;100.00
44131;BME280;29792;48.726;9.248;2022-10-16T02:16:49;96810.19;;;15.84;100.00
44131;BME280;29792;48.726;9.248;2022-10-16T02:19:15;96803.41;;;15.83;100.00
44131;BME280;29792;48.726;9.248;2022-10-16T02:26:42;96831.16;;;15.81;100.00
44131;BME280;29792;48.726;9.248;2022-10-16T02:29:10;96831.34;;;15.80;100.00
44131;BME280;29792;48.726;9.248;2022-10-16T02:31:38;96831.34;;;15.80;100.00
44131;BME280;29792;48.726;9.248;2022-10-16T02:34:06;96822.13;;;15.77;100.00
44131;BME280;29792;48.726;9.248;2022-10-16T02:36:32;96813.72;;;15.75;100.00
44131;BME280;29792;48.726;9.248;2022-10-16T02:38:58;96815.66;;;15.73;100.00
44131;BME280;29792;48.726;9.248;2022-10-16T02:41:25;96805.00;;;15.68;100.00
44131;BME280;29792;48.726;9.248;2022-10-16T02:43:51;96803.53;;;15.65;100.00
44131;BME280;29792;48.726;9.248;2022-10-16T02:46:16;96806.59;;;15.61;100.00
44131;BME280;29792;48.726;9.248;2022-10-16T02:48:42;96815.47;;;15.58;100.00
44131;BME280;29792;48.726;9.248;2022-10-16T02:51:07;96814.84;;;15.56;100.00
44131;BME280;29792;48.726;9.248;2022-10-16T02:53:32;96820.00;;;15.56;100.00
44131;BME280;29792;48.726;9.248;2022-10-16T02:55:58;96818.19;;;15.57;100.00
44131;BME280;29792;48.726;9.248;2022-10-16T02:58:23;96818.84;;;15.59;100.00
44131;BME280;29792;48.726;9.248;2022-10-16T03:00:48;96832.44;;;15.61;100.00
44131;BME280;29792;48.726;9.248;2022-10-16T03:03:13;96829.84;;;15.61;100.00
44131;BME280;29792;48.726;9.248;2022-10-16T03:05:38;96830.81;;;15.60;100.00
44131;BME280;29792;48.726;9.248;2022-10-16T03:08:03;96825.63;;;15.60;100.00
44131;BME280;29792;48.726;9.248;2022-10-16T03:10:29;96824.81;;;15.59;100.00
44131;BME280;29792;48.726;9.248;2022-10-16T03:12:54;96825.78;;;15.58;100.00
44131;BME280;29792;48.726;9.248;2022-10-16T03:15:19;96822.75;;;15.55;100.00
44131;BME280;29792;48.726;9.248;2022-10-16T03:17:44;96826.28;;;15.54;100.00
44131;BME280;29792;48.726;9.248;2022-10-16T03:20:09;96828.06;;;15.53;100.00
44131;BME280;29792;48.726;9.248;2022-10-16T03:22:35;96820.44;;;15.52;100.00
44131;BME280;29792;48.726;9.248;2022-10-16T03:25:00;96830.91;;;15.50;100.00
44131;BME280;29792;48.726;9.248;2022-10-16T03:27:25;96828.66;;;15.47;100.00
44131;BME280;29792;48.726;9.248;2022-10-16T03:29:50;96823.66;;;15.46;100.00
44131;BME280;29792;48.726;9.248;2022-10-16T03:32:15;96834.94;;;15.45;100.00
44131;BME280;29792;48.726;9.248;2022-10-16T03:34:41;96836.56;;;15.46;100.00
44131;BME280;29792;48.726;9.248;2022-10-16T03:37:06;96829.78;;;15.45;100.00
44131;BME280;29792;48.726;9.248;2022-10-16T03:39:31;96827.19;;;15.45;100.00
44131;BME280;29792;48.726;9.248;2022-10-16T03:41:56;96827.03;;;15.46;100.00
44131;BME280;29792;48.726;9.248;2022-10-16T03:44:22;96834.63;;;15.48;100.00
44131;BME280;29792;48.726;9.248;2022-10-16T03:46:47;96836.41;;;15.47;100.00
44131;BME280;29792;48.726;9.248;2022-10-16T03:49:12;96836.22;;;15.49;100.00
44131;BME280;29792;48.726;9.248;2022-10-16T03:51:37;96832.69;;;15.50;100.00
44131;BME280;29792;48.726;9.248;2022-10-16T03:54:02;96839.63;;;15.49;100.00
44131;BME280;29792;48.726;9.248;2022-10-16T03:56:27;96837.84;;;15.50;100.00
44131;BME280;29792;48.726;9.248;2022-10-16T03:58:53;96843.97;;;15.49;100.00
44131;BME280;29792;48.726;9.248;2022-10-16T04:01:18;96843.81;;;15.50;100.00
44131;BME280;29792;48.726;9.248;2022-10-16T04:03:43;96854.00;;;15.52;100.00
44131;BME280;29792;48.726;9.248;2022-10-16T04:06:08;96841.22;;;15.50;100.00
44131;BME280;29792;48.726;9.248;2022-10-16T04:08:33;96833.63;;;15.49;100.00
44131;BME280;29792;48.726;9.248;2022-10-16T04:11:01;96836.41;;;15.47;100.00
44131;BME280;29792;48.726;9.248;2022-10-16T04:13:26;96835.59;;;15.47;100.00
44131;BME280;29792;48.726;9.248;2022-10-16T04:15:51;96842.69;;;15.45;100.00
44131;BME280;29792;48.726;9.248;2022-10-16T04:18:16;96846.06;;;15.45;100.00
44131;BME280;29792;48.726;9.248;2022-10-16T04:20:42;96841.88;;;15.44;100.00
44131;BME280;29792;48.726;9.248;2022-10-16T04:23:07;96847.03;;;15.44;100.00
44131;BME280;29792;48.726;9.248;2022-10-16T04:25:32;96846.22;;;15.44;100.00
44131;BME280;29792;48.726;9.248;2022-10-16T04:27:57;96843.63;;;15.44;100.00
44131;BME280;29792;48.726;9.248;2022-10-16T04:30:23;96850.44;;;15.45;100.00
44131;BME280;29792;48.726;9.248;2022-10-16T04:32:49;96842.69;;;15.45;100.00
44131;BME280;29792;48.726;9.248;2022-10-16T04:35:14;96838.31;;;15.45;100.00
44131;BME280;29792;48.726;9.248;2022-10-16T04:37:40;96838.47;;;15.44;100.00
44131;BME280;29792;48.726;9.248;2022-10-16T04:40:05;96844.59;;;15.43;100.00
44131;BME280;29792;48.726;9.248;2022-10-16T04:42:30;96845.75;;;15.40;100.00
44131;BME280;29792;48.726;9.248;2022-10-16T04:44:55;96846.03;;;15.37;100.00
44131;BME280;29792;48.726;9.248;2022-10-16T04:47:21;96849.59;;;15.36;100.00
44131;BME280;29792;48.726;9.248;2022-10-16T04:49:46;96852.97;;;15.37;100.00
44131;BME280;29792;48.726;9.248;2022-10-16T04:52:11;96854.59;;;15.38;100.00
44131;BME280;29792;48.726;9.248;2022-10-16T04:54:36;96858.00;;;15.38;100.00
44131;BME280;29792;48.726;9.248;2022-10-16T04:57:02;96859.63;;;15.39;100.00
44131;BME280;29792;48.726;9.248;2022-10-16T04:59:27;96857.84;;;15.40;100.00
44131;BME280;29792;48.726;9.248;2022-10-16T05:01:52;96862.69;;;15.43;100.00
44131;BME280;29792;48.726;9.248;2022-10-16T05:04:17;96866.06;;;15.43;100.00
44131;BME280;29792;48.726;9.248;2022-10-16T05:06:42;96871.06;;;15.45;100.00
44131;BME280;29792;48.726;9.248;2022-10-16T05:09:08;96875.28;;;15.46;100.00
44131;BME280;29792;48.726;9.248;2022-10-16T05:11:33;96880.44;;;15.46;100.00
44131;BME280;29792;48.726;9.248;2022-10-16T05:13:58;96876.91;;;15.47;100.00
44131;BME280;29792;48.726;9.248;2022-10-16T05:16:24;96877.72;;;15.47;100.00
44131;BME280;29792;48.726;9.248;2022-10-16T05:18:49;96878.53;;;15.48;100.00
44131;BME280;29792;48.726;9.248;2022-10-16T05:21:15;96876.75;;;15.48;100.00
44131;BME280;29792;48.726;9.248;2022-10-16T05:23:41;96875.13;;;15.47;100.00
44131;BME280;29792;48.726;9.248;2022-10-16T05:26:06;96875.13;;;15.47;100.00
44131;BME280;29792;48.726;9.248;2022-10-16T05:28:31;96870.94;;;15.46;100.00
44131;BME280;29792;48.726;9.248;2022-10-16T05:30:56;96868.50;;;15.45;100.00
44131;BME280;29792;48.726;9.248;2022-10-16T05:33:22;96868.50;;;15.45;100.00
44131;BME280;29792;48.726;9.248;2022-10-16T05:35:48;96875.28;;;15.46;100.00
44131;BME280;29792;48.726;9.248;2022-10-16T05:38:14;96879.78;;;15.44;100.00
44131;BME280;29792;48.726;9.248;2022-10-16T05:40:39;96877.19;;;15.44;100.00
44131;BME280;29792;48.726;9.248;2022-10-16T05:43:05;96883.31;;;15.43;100.00
44131;BME280;29792;48.726;9.248;2022-10-16T05:45:30;96878.50;;;15.40;100.00
44131;BME280;29792;48.726;9.248;2022-10-16T05:47:55;96886.25;;;15.40;100.00
44131;BME280;29792;48.726;9.248;2022-10-16T05:50:20;96884.63;;;15.39;100.00
44131;BME280;29792;48.726;9.248;2022-10-16T05:52:45;96886.38;;;15.38;100.00
44131;BME280;29792;48.726;9.248;2022-10-16T05:55:11;96882.19;;;15.37;100.00
44131;BME280;29792;48.726;9.248;2022-10-16T05:57:36;96894.94;;;15.39;100.00
44131;BME280;29792;48.726;9.248;2022-10-16T06:00:01;96890.88;;;15.36;100.00
44131;BME280;29792;48.726;9.248;2022-10-16T06:02:26;96889.25;;;15.35;100.00
44131;BME280;29792;48.726;9.248;2022-10-16T06:04:52;96896.06;;;15.36;100.00
44131;BME280;29792;48.726;9.248;2022-10-16T06:07:18;96903.94;;;15.35;100.00
44131;BME280;29792;48.726;9.248;2022-10-16T06:09:43;96903.66;;;15.38;100.00
44131;BME280;29792;48.726;9.248;2022-10-16T06:12:09;96906.22;;;15.38;100.00
44131;BME280;29792;48.726;9.248;2022-10-16T06:14:34;96908.00;;;15.37;100.00
44131;BME280;29792;48.726;9.248;2022-10-16T06:16:59;96911.25;;;15.39;100.00
44131;BME280;29792;48.726;9.248;2022-10-16T06:19:24;96910.28;;;15.40;100.00
44131;BME280;29792;48.726;9.248;2022-10-16T06:21:49;96909.28;;;15.41;100.00
44131;BME280;29792;48.726;9.248;2022-10-16T06:24:14;96918.50;;;15.44;100.00
44131;BME280;29792;48.726;9.248;2022-10-16T06:26:40;96921.91;;;15.44;100.00
44131;BME280;29792;48.726;9.248;2022-10-16T06:29:05;96920.78;;;15.47;100.00
44131;BME280;29792;48.726;9.248;2022-10-16T06:31:30;96925.81;;;15.48;100.00
44131;BME280;29792;48.726;9.248;2022-10-16T06:33:58;96924.66;;;15.51;100.00
44131;BME280;29792;48.726;9.248;2022-10-16T06:36:24;96927.63;;;15.56;100.00
44131;BME280;29792;48.726;9.248;2022-10-16T06:38:49;96926.50;;;15.58;100.00
44131;BME280;29792;48.726;9.248;2022-10-16T06:41:15;96919.09;;;15.63;100.00
44131;BME280;29792;48.726;9.248;2022-10-16T06:43:41;96926.53;;;15.67;100.00
44131;BME280;29792;48.726;9.248;2022-10-16T06:46:07;96937.22;;;15.72;100.00
44131;BME280;29792;48.726;9.248;2022-10-16T06:48:34;96939.97;;;15.78;100.00
44131;BME280;29792;48.726;9.248;2022-10-16T06:51:03;96947.25;;;15.83;100.00
44131;BME280;29792;48.726;9.248;2022-10-16T06:53:30;96946.66;;;15.97;100.00
44131;BME280;29792;48.726;9.248;2022-10-16T06:55:56;96945.25;;;16.27;100.00
44131;BME280;29792;48.726;9.248;2022-10-16T06:58:21;96951.72;;;16.55;100.00
44131;BME280;29792;48.726;9.248;2022-10-16T07:00:46;96950.47;;;16.67;100.00
44131;BME280;29792;48.726;9.248;2022-10-16T07:03:11;96952.91;;;16.69;100.00
44131;BME280;29792;48.726;9.248;2022-10-16T07:05:40;96960.81;;;16.67;100.00
44131;BME280;29792;48.726;9.248;2022-10-16T07:08:06;96967.13;;;16.65;100.00
44131;BME280;29792;48.726;9.248;2022-10-16T07:10:31;96964.88;;;16.62;100.00
44131;BME280;29792;48.726;9.248;2022-10-16T07:12:56;96970.16;;;16.60;100.00
44131;BME280;29792;48.726;9.248;2022-10-16T07:15:22;96968.44;;;16.61;100.00
44131;BME280;29792;48.726;9.248;2022-10-16T07:17:47;96969.34;;;16.60;100.00
44131;BME280;29792;48.726;9.248;2022-10-16T07:20:12;96975.34;;;16.60;100.00
44131;BME280;29792;48.726;9.248;2022-10-16T07:22:37;96980.38;;;16.62;100.00
44131;BME280;29792;48.726;9.248;2022-10-16T07:25:02;96992.16;;;16.64;100.00
44131;BME280;29792;48.726;9.248;2022-10-16T07:27:28;96997.03;;;16.67;100.00
44131;BME280;29792;48.726;9.248;2022-10-16T07:29:53;96992.81;;;16.66;100.00
44131;BME280;29792;48.726;9.248;2022-10-16T07:32:18;97001.56;;;16.65;100.00
44131;BME280;29792;48.726;9.248;2022-10-16T07:34:43;97010.94;;;16.66;100.00
44131;BME280;29792;48.726;9.248;2022-10-16T07:37:08;97020.31;;;16.67;100.00
44131;BME280;29792;48.726;9.248;2022-10-16T07:39:33;97023.72;;;16.68;100.00
44131;BME280;29792;48.726;9.248;2022-10-16T07:41:59;97021.28;;;16.66;100.00
44131;BME280;29792;48.726;9.248;2022-10-16T07:44:24;97023.72;;;16.68;100.00
44131;BME280;29792;48.726;9.248;2022-10-16T07:46:49;97015.78;;;16.69;100.00
44131;BME280;29792;48.726;9.248;2022-10-16T07:49:14;97015.59;;;16.71;100.00
44131;BME280;29792;48.726;9.248;2022-10-16T07:51:39;97018.69;;;16.74;100.00
44131;BME280;29792;48.726;9.248;2022-10-16T07:54:04;97017.72;;;16.75;100.00
44131;BME280;29792;48.726;9.248;2022-10-16T07:56:30;97021.13;;;16.76;100.00
44131;BME280;29792;48.726;9.248;2022-10-16T07:58:55;97035.03;;;16.75;100.00
44131;BME280;29792;48.726;9.248;2022-10-16T08:01:21;97026.31;;;16.76;100.00
44131;BME280;29792;48.726;9.248;2022-10-16T08:03:47;97045.84;;;16.78;100.00
44131;BME280;29792;48.726;9.248;2022-10-16T08:06:13;97045.69;;;16.80;100.00
44131;BME280;29792;48.726;9.248;2022-10-16T08:08:38;97038.09;;;16.78;100.00
44131;BME280;29792;48.726;9.248;2022-10-16T08:11:03;97041.34;;;16.81;100.00
44131;BME280;29792;48.726;9.248;2022-10-16T08:13:29;97042.97;;;16.82;100.00
44131;BME280;29792;48.726;9.248;2022-10-16T08:15:54;97035.84;;;16.84;100.00
44131;BME280;29792;48.726;9.248;2022-10-16T08:18:20;97042.31;;;16.88;100.00
44131;BME280;29792;48.726;9.248;2022-10-16T08:20:45;97041.69;;;16.94;100.00
44131;BME280;29792;48.726;9.248;2022-10-16T08:23:11;97040.22;;;16.99;100.00
44131;BME280;29792;48.726;9.248;2022-10-16T08:25:36;97044.91;;;17.04;100.00
44131;BME280;29792;48.726;9.248;2022-10-16T08:28:05;97043.94;;;17.13;100.00
44131;BME280;29792;48.726;9.248;2022-10-16T08:30:30;97046.66;;;17.20;100.00
44131;BME280;29792;48.726;9.248;2022-10-16T08:32:56;97050.25;;;17.27;100.00
44131;BME280;29792;48.726;9.248;2022-10-16T08:35:23;97051.66;;;17.37;100.00
44131;BME280;29792;48.726;9.248;2022-10-16T08:37:48;97051.66;;;17.45;100.00
44131;BME280;29792;48.726;9.248;2022-10-16T08:40:16;97054.72;;;17.57;100.00
44131;BME280;29792;48.726;9.248;2022-10-16T08:45:34;97057.31;;;17.73;100.00
44131;BME280;29792;48.726;9.248;2022-10-16T08:48:14;97067.66;;;17.81;100.00
44131;BME280;29792;48.726;9.248;2022-10-16T08:50:42;97068.09;;;17.85;100.00
44131;BME280;29792;48.726;9.248;2022-10-16T08:53:10;97066.81;;;17.89;100.00
44131;BME280;29792;48.726;9.248;2022-10-16T08:55:43;97059.69;;;17.91;100.00
44131;BME280;29792;48.726;9.248;2022-10-16T08:58:13;97060.16;;;17.95;100.00
44131;BME280;29792;48.726;9.248;2022-10-16T09:00:39;97065.81;;;17.98;100.00
44131;BME280;29792;48.726;9.248;2022-10-16T09:05:38;97076.81;;;18.00;100.00
44131;BME280;29792;48.726;9.248;2022-10-16T09:10:37;97087.50;;;18.05;100.00
44131;BME280;29792;48.726;9.248;2022-10-16T09:15:34;97092.78;;;18.20;100.00
44131;BME280;29792;48.726;9.248;2022-10-16T09:20:28;97083.16;;;18.37;100.00
44131;BME280;29792;48.726;9.248;2022-10-16T09:23:00;97077.91;;;18.45;100.00
44131;BME280;29792;48.726;9.248;2022-10-16T09:25:33;97081.75;;;18.57;100.00
44131;BME280;29792;48.726;9.248;2022-10-16T09:27:59;97082.84;;;18.71;100.00
44131;BME280;29792;48.726;9.248;2022-10-16T09:30:26;97093.44;;;18.84;100.00
44131;BME280;29792;48.726;9.248;2022-10-16T09:32:52;97093.88;;;18.95;100.00
44131;BME280;29792;48.726;9.248;2022-10-16T09:35:21;97099.00;;;19.03;100.00
44131;BME280;29792;48.726;9.248;2022-10-16T09:37:49;97096.34;;;19.12;100.00
44131;BME280;29792;48.726;9.248;2022-10-16T09:40:25;97102.28;;;19.20;100.00
44131;BME280;29792;48.726;9.248;2022-10-16T09:42:52;97097.56;;;19.38;100.00
44131;BME280;29792;48.726;9.248;2022-10-16T09:45:21;97092.56;;;19.60;100.00
44131;BME280;29792;48.726;9.248;2022-10-16T09:47:47;97100.03;;;19.77;100.00
44131;BME280;29792;48.726;9.248;2022-10-16T09:50:20;97095.97;;;19.90;100.00
44131;BME280;29792;48.726;9.248;2022-10-16T09:52:46;97103.19;;;20.02;99.33
44131;BME280;29792;48.726;9.248;2022-10-16T09:55:15;97101.25;;;20.11;98.09
44131;BME280;29792;48.726;9.248;2022-10-16T09:57:54;97105.38;;;20.20;97.59
44131;BME280;29792;48.726;9.248;2022-10-16T10:00:20;97106.03;;;20.37;96.54
44131;BME280;29792;48.726;9.248;2022-10-16T10:02:45;97106.28;;;20.56;95.27
44131;BME280;29792;48.726;9.248;2022-10-16T10:05:18;97096.28;;;20.75;94.09
44131;BME280;29792;48.726;9.248;2022-10-16T10:07:45;97102.13;;;20.98;93.71
44131;BME280;29792;48.726;9.248;2022-10-16T10:13:16;97120.47;;;21.32;88.67
44131;BME280;29792;48.726;9.248;2022-10-16T10:15:42;97110.94;;;21.40;86.97
44131;BME280;29792;48.726;9.248;2022-10-16T10:18:20;97119.34;;;21.42;85.32
44131;BME280;29792;48.726;9.248;2022-10-16T10:20:46;97114.13;;;21.42;86.12
44131;BME280;29792;48.726;9.248;2022-10-16T10:23:22;97119.56;;;21.40;85.56
44131;BME280;29792;48.726;9.248;2022-10-16T10:25:59;97117.16;;;21.39;85.66
44131;BME280;29792;48.726;9.248;2022-10-16T10:28:51;97113.97;;;21.43;86.52
44131;BME280;29792;48.726;9.248;2022-10-16T10:31:21;97110.44;;;21.57;87.96
44131;BME280;29792;48.726;9.248;2022-10-16T10:33:52;97109.94;;;21.68;85.55
44131;BME280;29792;48.726;9.248;2022-10-16T10:38:52;97117.50;;;21.91;83.83
44131;BME280;29792;48.726;9.248;2022-10-16T10:49:21;97116.44;;;22.48;77.56
44131;BME280;29792;48.726;9.248;2022-10-16T10:51:53;97114.63;;;22.49;77.58
44131;BME280;29792;48.726;9.248;2022-10-16T10:54:26;97116.41;;;22.41;74.45
44131;BME280;29792;48.726;9.248;2022-10-16T10:56:58;97109.53;;;22.34;73.36
44131;BME280;29792;48.726;9.248;2022-10-16T11:07:14;97120.75;;;22.69;74.20
44131;BME280;29792;48.726;9.248;2022-10-16T11:09:44;97108.94;;;22.79;73.59
44131;BME280;29792;48.726;9.248;2022-10-16T11:14:46;97112.84;;;23.10;75.14
44131;BME280;29792;48.726;9.248;2022-10-16T11:17:18;97109.22;;;23.24;74.09
44131;BME280;29792;48.726;9.248;2022-10-16T11:19:48;97106.22;;;23.34;72.53
44131;BME280;29792;48.726;9.248;2022-10-16T11:24:49;97099.81;;;23.49;72.48
44131;BME280;29792;48.726;9.248;2022-10-16T11:27:17;97108.81;;;23.47;70.23
44131;BME280;29792;48.726;9.248;2022-10-16T11:29:46;97106.59;;;23.44;68.92
44131;BME280;29792;48.726;9.248;2022-10-16T11:32:28;97112.03;;;23.36;68.26
44131;BME280;29792;48.726;9.248;2022-10-16T11:35:08;97111.03;;;23.30;69.96
44131;BME280;29792;48.726;9.248;2022-10-16T11:37:38;97112.84;;;23.30;72.07
44131;BME280;29792;48.726;9.248;2022-10-16T11:40:28;97102.56;;;23.28;69.56
44131;BME280;29792;48.726;9.248;2022-10-16T11:42:51;97112.03;;;23.29;69.21
44131;BME280;29792;48.726;9.248;2022-10-16T11:48:48;97100.56;;;23.30;70.02
44131;BME280;29792;48.726;9.248;2022-10-16T11:50:48;97099.97;;;23.28;69.29
44131;BME280;29792;48.726;9.248;2022-10-16T11:53:28;97095.94;;;23.32;71.44
44131;BME280;29792;48.726;9.248;2022-10-16T11:55:58;97101.38;;;23.44;72.58
44131;BME280;29792;48.726;9.248;2022-10-16T12:01:27;97091.72;;;23.71;70.11
44131;BME280;29792;48.726;9.248;2022-10-16T12:03:56;97088.91;;;23.79;68.23
44131;BME280;29792;48.726;9.248;2022-10-16T12:09:20;97086.25;;;23.92;67.26
44131;BME280;29792;48.726;9.248;2022-10-16T12:11:46;97094.50;;;23.95;67.82
44131;BME280;29792;48.726;9.248;2022-10-16T12:19:17;97084.00;;;24.15;67.06
44131;BME280;29792;48.726;9.248;2022-10-16T12:21:43;97086.19;;;24.18;66.60
44131;BME280;29792;48.726;9.248;2022-10-16T12:24:26;97084.00;;;24.22;66.46
44131;BME280;29792;48.726;9.248;2022-10-16T12:26:52;97089.41;;;24.27;67.25
44131;BME280;29792;48.726;9.248;2022-10-16T12:31:59;97095.44;;;24.27;67.28
44131;BME280;29792;48.726;9.248;2022-10-16T12:34:29;97092.84;;;24.27;65.75
44131;BME280;29792;48.726;9.248;2022-10-16T12:36:54;97099.06;;;24.26;65.22
44131;BME280;29792;48.726;9.248;2022-10-16T12:39:22;97094.25;;;24.30;66.05
44131;BME280;29792;48.726;9.248;2022-10-16T12:41:59;97100.47;;;24.36;66.47
44131;BME280;29792;48.726;9.248;2022-10-16T12:44:25;97099.25;;;24.38;65.00
44131;BME280;29792;48.726;9.248;2022-10-16T12:46:51;97096.44;;;24.40;62.76
44131;BME280;29792;48.726;9.248;2022-10-16T12:49:30;97107.28;;;24.43;63.09
44131;BME280;29792;48.726;9.248;2022-10-16T12:51:55;97100.78;;;24.52;64.64
44131;BME280;29792;48.726;9.248;2022-10-16T12:54:37;97100.34;;;24.62;63.93
44131;BME280;29792;48.726;9.248;2022-10-16T13:02:08;97098.84;;;24.34;61.51
44131;BME280;29792;48.726;9.248;2022-10-16T13:04:47;97104.13;;;24.21;61.59
44131;BME280;29792;48.726;9.248;2022-10-16T13:07:21;97106.97;;;24.07;60.65
44131;BME280;29792;48.726;9.248;2022-10-16T13:09:54;97108.19;;;23.98;63.31
44131;BME280;29792;48.726;9.248;2022-10-16T13:17:23;97112.06;;;23.82;64.54
44131;BME280;29792;48.726;9.248;2022-10-16T13:22:34;97108.22;;;23.91;63.41
44131;BME280;29792;48.726;9.248;2022-10-16T13:27:49;97114.81;;;24.00;62.79
44131;BME280;29792;48.726;9.248;2022-10-16T13:30:19;97113.03;;;24.07;64.06
44131;BME280;29792;48.726;9.248;2022-10-16T13:33:31;97110.41;;;24.07;63.25
44131;BME280;29792;48.726;9.248;2022-10-16T13:35:32;97107.38;;;24.04;63.57
44131;BME280;29792;48.726;9.248;2022-10-16T13:38:14;97115.84;;;23.99;63.67
44131;BME280;29792;48.726;9.248;2022-10-16T13:40:50;97111.41;;;23.93;64.94
44131;BME280;29792;48.726;9.248;2022-10-16T13:43:16;97118.69;;;23.91;65.60
44131;BME280;29792;48.726;9.248;2022-10-16T13:45:51;97112.41;;;23.92;66.22
44131;BME280;29792;48.726;9.248;2022-10-16T13:48:17;97111.03;;;23.89;66.07
44131;BME280;29792;48.726;9.248;2022-10-16T13:50:42;97111.66;;;23.91;66.16
44131;BME280;29792;48.726;9.248;2022-10-16T13:53:12;97113.22;;;23.92;65.72
44131;BME280;29792;48.726;9.248;2022-10-16T13:55:37;97111.41;;;23.93;65.12
44131;BME280;29792;48.726;9.248;2022-10-16T13:58:12;97111.22;;;23.94;65.01
44131;BME280;29792;48.726;9.248;2022-10-16T14:00:37;97102.34;;;23.95;64.34
44131;BME280;29792;48.726;9.248;2022-10-16T14:03:07;97100.94;;;23.93;65.28
44131;BME280;29792;48.726;9.248;2022-10-16T14:05:33;97107.19;;;23.92;65.61
44131;BME280;29792;48.726;9.248;2022-10-16T14:07:58;97108.00;;;23.86;65.20
44131;BME280;29792;48.726;9.248;2022-10-16T14:10:30;97110.63;;;23.79;67.07
44131;BME280;29792;48.726;9.248;2022-10-16T14:13:03;97105.63;;;23.71;66.30
44131;BME280;29792;48.726;9.248;2022-10-16T14:15:30;97100.41;;;23.65;66.43
44131;BME280;29792;48.726;9.248;2022-10-16T14:17:55;97104.03;;;23.57;66.51
44131;BME280;29792;48.726;9.248;2022-10-16T14:20:22;97111.88;;;23.50;67.04
44131;BME280;29792;48.726;9.248;2022-10-16T14:27:56;97118.06;;;23.30;66.22
44131;BME280;29792;48.726;9.248;2022-10-16T14:30:22;97122.47;;;23.23;65.25
44131;BME280;29792;48.726;9.248;2022-10-16T14:32:59;97114.63;;;23.16;64.99
44131;BME280;29792;48.726;9.248;2022-10-16T14:38:01;97124.09;;;23.10;64.27